createdAt,value
2018-12-27T00:01:15.956Z,38.00
2018-12-27T00:03:45.891Z,48.35
2018-12-27T00:06:15.917Z,42.98
2018-12-27T00:08:45.805Z,49.42
2018-12-27T00:11:16.070Z,45.70
2018-12-27T00:13:45.943Z,43.08
2018-12-27T00:16:16.026Z,45.20
2018-12-27T00:18:45.877Z,46.68
2018-12-27T00:21:15.926Z,44.95
2018-12-27T00:23:45.847Z,43.58
2018-12-27T00:26:16.521Z,44.75
2018-12-27T00:28:49.464Z,42.48
2018-12-27T00:31:19.345Z,51.95
2018-12-27T00:33:49.138Z,47.33
2018-12-27T00:36:22.724Z,50.23
2018-12-27T00:38:52.601Z,39.53
2018-12-27T00:41:22.604Z,44.73
2018-12-27T00:43:52.770Z,49.27
2018-12-27T00:46:23.103Z,45.17
2018-12-27T00:48:52.985Z,43.78
2018-12-27T00:51:22.917Z,48.15
2018-12-27T05:10:33.673Z,34.45
2018-12-27T05:13:12.302Z,30.45
2018-12-27T05:15:54.920Z,43.65
2018-12-27T05:19:01.397Z,37.03
2018-12-27T05:21:50.956Z,38.60
2018-12-27T05:24:57.697Z,23.25
2018-12-27T05:27:34.051Z,34.38
2018-12-27T05:31:22.288Z,30.68
2018-12-27T05:33:46.913Z,29.82
2018-12-27T05:36:51.782Z,36.33
2018-12-27T05:40:24.967Z,31.30
2018-12-27T05:43:32.673Z,37.85
2018-12-27T05:46:38.846Z,36.60
2018-12-27T05:52:36.755Z,34.92
2018-12-27T05:55:19.012Z,36.50
2018-12-27T05:57:50.974Z,35.83
2018-12-27T06:00:38.485Z,42.60
2018-12-27T06:03:55.918Z,33.92
2018-12-27T06:07:15.445Z,32.80
2018-12-27T06:12:31.399Z,37.25
2018-12-27T06:15:42.937Z,36.63
2018-12-27T06:18:40.903Z,37.10
2018-12-27T06:21:34.455Z,40.45
2018-12-27T06:24:01.654Z,38.30
2018-12-27T06:26:33.092Z,45.52
2018-12-27T06:29:03.494Z,46.88
2018-12-27T06:31:38.005Z,39.98
2018-12-27T06:34:09.244Z,39.35
2018-12-27T06:36:41.203Z,49.88
2018-12-27T06:39:31.413Z,38.73
2018-12-27T06:42:12.041Z,39.73
2018-12-27T06:44:49.104Z,40.12
2018-12-27T06:47:59.330Z,36.90
2018-12-27T06:50:53.529Z,39.90
2018-12-27T06:53:24.328Z,44.77
2018-12-27T06:55:59.957Z,45.78
2018-12-27T06:58:45.536Z,42.40
2018-12-27T07:09:11.826Z,36.20
2018-12-27T07:11:41.982Z,39.53
2018-12-27T07:14:15.319Z,38.10
2018-12-27T07:17:01.374Z,39.78
2018-12-27T07:19:37.002Z,49.13
2018-12-27T07:22:07.278Z,41.20
2018-12-27T07:24:38.134Z,48.13
2018-12-27T07:27:09.144Z,44.55
2018-12-27T07:29:39.359Z,45.92
2018-12-27T07:32:12.433Z,37.05
2018-12-27T07:34:42.346Z,37.95
2018-12-27T07:37:13.173Z,38.05
2018-12-27T07:39:48.971Z,42.80
2018-12-27T07:42:22.745Z,41.18
2018-12-27T07:44:59.452Z,39.73
2018-12-27T07:47:41.001Z,47.48
2018-12-27T07:50:13.014Z,37.98
2018-12-27T07:52:56.860Z,41.25
2018-12-27T07:55:28.764Z,35.92
2018-12-27T07:57:59.555Z,43.35
2018-12-27T08:00:29.827Z,31.87
2018-12-27T08:03:35.872Z,37.93
2018-12-27T08:05:58.025Z,33.85
2018-12-27T08:08:34.278Z,36.13
2018-12-27T08:11:07.163Z,35.38
2018-12-27T08:13:37.141Z,35.45
2018-12-27T08:16:07.043Z,35.70
2018-12-27T08:18:36.972Z,34.45
2018-12-27T08:21:06.889Z,37.88
2018-12-27T08:26:56.950Z,37.35
2018-12-27T08:29:33.657Z,36.10
2018-12-27T08:32:49.264Z,33.55
2018-12-27T08:35:19.728Z,35.35
2018-12-27T08:37:50.227Z,38.90
2018-12-27T08:40:22.911Z,34.55
2018-12-27T08:43:24.023Z,34.90
2018-12-27T08:45:58.065Z,34.45
2018-12-27T08:48:30.713Z,34.75
2018-12-27T09:01:30.929Z,31.33
2018-12-27T09:04:01.215Z,33.25
2018-12-27T09:06:31.405Z,29.95
2018-12-27T09:09:08.507Z,45.03
2018-12-27T09:12:26.450Z,32.33
2018-12-27T09:15:10.497Z,36.75
2018-12-27T09:17:42.842Z,27.52
2018-12-27T09:20:19.296Z,29.98
2018-12-27T09:23:15.016Z,29.40
2018-12-27T09:25:49.987Z,29.25
2018-12-27T09:28:23.985Z,36.17
2018-12-27T09:31:02.050Z,24.82
2018-12-27T09:33:31.748Z,28.65
2018-12-27T09:36:01.972Z,29.48
2018-12-27T09:38:36.884Z,26.77
2018-12-27T09:41:07.257Z,28.85
2018-12-27T09:43:37.646Z,33.18
2018-12-27T09:46:07.800Z,24.72
2018-12-27T09:48:37.782Z,34.48
2018-12-27T09:51:07.619Z,27.75
2018-12-27T09:53:37.810Z,28.05
2018-12-27T09:56:10.141Z,33.85
2018-12-27T09:58:40.128Z,29.05
2018-12-27T10:01:11.257Z,28.27
2018-12-27T10:03:41.260Z,26.95
2018-12-27T10:06:11.484Z,27.65
2018-12-27T10:08:43.256Z,29.20
2018-12-27T10:11:13.978Z,27.93
2018-12-27T10:13:44.127Z,35.60
2018-12-27T10:16:44.904Z,40.58
2018-12-27T10:19:15.539Z,39.27
2018-12-27T10:21:46.808Z,35.63
2018-12-27T10:24:19.405Z,39.92
2018-12-27T10:26:49.640Z,37.55
2018-12-27T10:29:19.704Z,38.48
2018-12-27T10:31:49.682Z,38.25
2018-12-27T10:34:19.536Z,36.40
2018-12-27T10:36:49.747Z,44.88
2018-12-27T10:39:19.868Z,45.17
2018-12-27T10:41:49.872Z,43.50
2018-12-27T10:44:19.849Z,38.80
2018-12-27T10:46:49.842Z,43.78
2018-12-27T10:49:19.924Z,36.00
2018-12-27T10:51:49.973Z,44.95
2018-12-27T10:54:20.036Z,49.03
2018-12-27T10:56:50.300Z,42.78
2018-12-27T10:59:20.985Z,39.42
2018-12-27T11:01:51.126Z,40.45
2018-12-27T11:04:21.374Z,46.88
2018-12-27T11:06:52.040Z,36.83
2018-12-27T11:09:22.479Z,40.48
2018-12-27T11:11:52.711Z,44.05
2018-12-27T11:14:22.913Z,31.73
2018-12-27T11:16:53.607Z,49.85
2018-12-27T11:19:23.901Z,47.62
2018-12-27T11:21:54.139Z,41.45
2018-12-27T11:24:24.245Z,46.30
2018-12-27T11:26:54.769Z,39.13
2018-12-27T11:29:24.767Z,44.83
2018-12-27T11:31:54.825Z,39.50
2018-12-27T11:34:24.884Z,39.25
2018-12-27T11:36:55.267Z,38.60
2018-12-27T11:39:28.093Z,40.30
2018-12-27T11:41:58.241Z,41.65
2018-12-27T11:44:28.311Z,36.93
2018-12-27T11:46:58.261Z,36.88
2018-12-27T11:49:28.603Z,41.70
2018-12-27T11:51:58.522Z,42.48
2018-12-27T11:54:28.415Z,41.45
2018-12-27T11:56:58.297Z,44.18
2018-12-27T11:59:28.314Z,37.30
2018-12-27T12:01:58.415Z,39.55
2018-12-27T12:04:28.386Z,32.63
2018-12-27T12:06:58.407Z,43.65
2018-12-27T12:09:28.429Z,35.45
2018-12-27T12:11:58.334Z,41.83
2018-12-27T12:14:28.181Z,43.35
2018-12-27T12:16:58.319Z,49.48
2018-12-27T12:19:28.250Z,43.45
2018-12-27T12:21:58.342Z,37.35
2018-12-27T12:24:28.512Z,39.13
2018-12-27T12:26:58.710Z,41.63
2018-12-27T12:29:28.751Z,33.83
2018-12-27T12:31:58.802Z,38.55
2018-12-27T12:34:29.147Z,51.48
2018-12-27T12:36:59.106Z,38.67
2018-12-27T12:39:29.072Z,38.60
2018-12-27T12:41:59.006Z,40.70
2018-12-27T12:44:28.975Z,35.25
2018-12-27T12:46:58.968Z,35.85
2018-12-27T12:49:28.881Z,42.23
2018-12-27T12:51:58.838Z,50.17
2018-12-27T12:54:28.902Z,35.00
2018-12-27T12:56:58.918Z,35.05
2018-12-27T12:59:28.903Z,32.25
2018-12-27T13:01:58.857Z,29.67
2018-12-27T13:04:28.808Z,29.77
2018-12-27T13:06:59.056Z,30.27
2018-12-27T13:09:29.141Z,38.60
2018-12-27T13:11:59.330Z,38.78
2018-12-27T13:14:29.451Z,33.23
2018-12-27T13:16:59.596Z,33.70
2018-12-27T13:19:29.804Z,34.48
2018-12-27T13:21:59.758Z,34.33
2018-12-27T13:24:29.871Z,34.50
2018-12-27T13:26:59.958Z,35.92
2018-12-27T13:29:30.086Z,35.88
2018-12-27T13:32:00.171Z,36.28
2018-12-27T13:34:30.265Z,39.23
2018-12-27T13:37:00.336Z,40.98
2018-12-27T13:39:30.429Z,35.73
2018-12-27T13:42:00.625Z,40.78
2018-12-27T13:44:30.799Z,36.33
2018-12-27T13:47:01.902Z,42.13
2018-12-27T13:49:31.811Z,38.10
2018-12-27T13:52:01.700Z,41.13
2018-12-27T13:54:31.641Z,32.00
2018-12-27T13:57:01.665Z,34.25
2018-12-27T13:59:31.643Z,42.50
2018-12-27T14:02:04.680Z,32.33
2018-12-27T14:04:34.893Z,36.20
2018-12-27T14:07:04.741Z,39.33
2018-12-27T14:09:35.664Z,37.42
2018-12-27T14:12:05.558Z,31.42
2018-12-27T14:14:35.587Z,37.25
2018-12-27T14:17:05.789Z,36.13
2018-12-27T14:19:35.799Z,37.00
2018-12-27T14:22:05.775Z,33.75
2018-12-27T14:24:35.786Z,33.20
2018-12-27T14:27:05.801Z,37.65
2018-12-27T14:29:35.769Z,36.35
2018-12-27T14:32:06.010Z,30.17
2018-12-27T14:34:35.927Z,34.67
2018-12-27T14:37:05.932Z,31.27
2018-12-27T14:39:36.046Z,34.20
2018-12-27T14:42:06.772Z,31.73
2018-12-27T14:44:36.879Z,36.28
2018-12-27T14:47:06.979Z,34.00
2018-12-27T14:49:36.989Z,35.13
2018-12-27T14:52:06.973Z,37.38
2018-12-27T14:54:37.282Z,38.25
2018-12-27T14:57:08.024Z,43.45
2018-12-27T14:59:37.995Z,43.25
2018-12-27T15:02:07.945Z,50.60
2018-12-27T15:04:37.880Z,37.45
2018-12-27T15:07:07.873Z,37.65
2018-12-27T15:09:37.994Z,38.92
2018-12-27T15:12:08.212Z,37.25
2018-12-27T15:14:38.260Z,41.08
2018-12-27T15:17:08.245Z,41.33
2018-12-27T15:19:38.265Z,38.48
2018-12-27T15:22:08.230Z,36.95
2018-12-27T15:24:38.171Z,51.25
2018-12-27T15:27:08.247Z,38.65
2018-12-27T15:29:38.356Z,47.85
2018-12-27T15:32:08.507Z,52.20
2018-12-27T15:34:38.627Z,43.50
2018-12-27T15:37:08.717Z,59.42
2018-12-27T15:39:38.706Z,52.33
2018-12-27T15:42:08.835Z,45.65
2018-12-27T15:44:38.947Z,58.08
2018-12-27T15:47:09.006Z,48.02
2018-12-27T15:49:38.976Z,52.05
2018-12-27T15:52:08.890Z,57.88
2018-12-27T15:54:38.826Z,54.73
2018-12-27T15:57:09.001Z,54.35
2018-12-27T15:59:38.887Z,55.73
2018-12-27T16:02:08.858Z,43.78
2018-12-27T16:04:38.792Z,62.20
2018-12-27T16:07:09.001Z,56.00
2018-12-27T16:09:38.936Z,59.42
2018-12-27T16:12:09.043Z,48.33
2018-12-27T16:14:39.933Z,59.23
2018-12-27T16:17:10.006Z,58.78
2018-12-27T16:19:40.314Z,52.15
2018-12-27T16:22:10.286Z,56.00
2018-12-27T16:24:40.261Z,54.05
2018-12-27T16:27:10.137Z,53.60
2018-12-27T16:29:40.058Z,57.58
2018-12-27T16:32:09.984Z,62.80
2018-12-27T16:34:39.785Z,57.38
2018-12-27T16:37:09.780Z,71.55
2018-12-27T16:39:39.958Z,57.58
2018-12-27T16:42:09.830Z,50.95
2018-12-27T16:44:39.788Z,60.70
2018-12-27T16:47:09.612Z,53.65
2018-12-27T16:49:41.313Z,51.00
2018-12-27T16:52:19.754Z,57.17
2018-12-27T16:54:53.387Z,60.75
2018-12-27T16:57:26.514Z,63.65
2018-12-27T17:00:03.457Z,61.45
2018-12-27T17:02:50.658Z,59.05
2018-12-27T17:05:34.178Z,54.30
2018-12-27T17:08:04.332Z,59.40
2018-12-27T17:10:34.549Z,52.85
2018-12-27T17:13:04.935Z,59.13
2018-12-27T17:15:49.973Z,57.85
2018-12-27T17:18:47.722Z,61.60
2018-12-27T17:21:21.779Z,62.35
2018-12-27T17:23:55.282Z,57.50
2018-12-27T17:26:25.740Z,60.58
2018-12-27T17:29:10.860Z,60.48
2018-12-27T17:31:40.769Z,57.05
2018-12-27T17:34:21.649Z,61.60
2018-12-27T17:36:52.609Z,57.03
2018-12-27T17:39:23.285Z,67.92
2018-12-27T17:42:07.646Z,66.12
2018-12-27T17:44:38.518Z,60.12
2018-12-27T17:47:08.976Z,53.60
2018-12-27T17:49:39.624Z,54.42
2018-12-27T17:52:10.011Z,48.92
2018-12-27T17:54:40.461Z,62.23
2018-12-27T17:57:11.043Z,57.08
2018-12-27T17:59:41.194Z,60.12
2018-12-27T18:02:11.596Z,55.08
2018-12-27T18:04:42.003Z,61.20
2018-12-27T18:07:12.459Z,62.43
2018-12-27T18:10:10.919Z,55.28
2018-12-27T18:12:42.691Z,58.92
2018-12-27T18:15:23.277Z,63.28
2018-12-27T18:17:53.349Z,59.77
2018-12-27T18:20:30.761Z,53.15
2018-12-27T18:23:23.036Z,59.08
2018-12-27T18:26:23.759Z,56.20
2018-12-27T18:28:53.926Z,54.98
2018-12-27T18:31:24.246Z,43.70
2018-12-27T18:33:59.733Z,56.02
2018-12-27T18:36:31.457Z,57.95
2018-12-27T18:39:10.503Z,59.88
2018-12-27T18:41:40.678Z,65.57
2018-12-27T18:44:11.758Z,57.55
2018-12-27T18:46:42.304Z,60.95
2018-12-27T18:49:12.935Z,61.00
2018-12-27T18:51:57.768Z,66.30
2018-12-27T18:54:28.341Z,66.47
2018-12-27T18:56:58.751Z,70.10
2018-12-27T18:59:29.362Z,53.00
2018-12-27T19:01:59.465Z,58.05
2018-12-27T19:04:29.486Z,62.83
2018-12-27T19:06:59.529Z,63.98
2018-12-27T19:09:29.573Z,66.30
2018-12-27T19:12:57.191Z,58.45
2018-12-27T19:15:29.379Z,63.42
2018-12-27T19:18:33.003Z,53.85
2018-12-27T19:22:26.213Z,70.05
2018-12-27T19:24:58.529Z,68.22
2018-12-27T19:27:58.909Z,65.40
2018-12-27T19:30:28.911Z,65.00
2018-12-27T19:32:58.822Z,58.92
2018-12-27T19:35:29.002Z,59.90
2018-12-27T19:37:59.045Z,57.60
2018-12-27T19:40:29.681Z,57.95
2018-12-27T19:42:59.568Z,65.85
2018-12-27T19:45:30.822Z,56.20
2018-12-27T19:48:06.691Z,58.58
2018-12-27T19:50:38.509Z,56.68
2018-12-27T19:54:19.014Z,60.75
2018-12-27T19:57:20.170Z,58.40
2018-12-27T20:03:57.785Z,52.40
2018-12-27T20:10:47.485Z,59.53
2018-12-27T20:13:17.964Z,60.30
2018-12-27T20:15:48.526Z,55.12
2018-12-27T20:18:18.951Z,51.95
2018-12-27T20:20:50.452Z,59.27
2018-12-27T20:23:21.077Z,59.38
2018-12-27T20:25:52.347Z,72.92
2018-12-27T20:28:23.443Z,56.98
2018-12-27T20:30:53.771Z,60.75
2018-12-27T20:33:24.175Z,57.17
2018-12-27T20:35:57.370Z,58.55
2018-12-27T20:38:28.270Z,62.70
2018-12-27T20:40:59.889Z,65.28
2018-12-27T20:43:31.437Z,62.93
2018-12-27T20:46:10.779Z,64.65
2018-12-27T20:56:03.853Z,62.08
2018-12-27T21:07:22.247Z,63.20
2018-12-27T21:09:52.689Z,61.25
2018-12-27T21:12:22.957Z,54.65
2018-12-27T21:14:53.248Z,52.05
2018-12-27T21:17:25.858Z,63.23
2018-12-27T21:19:57.338Z,58.48
2018-12-27T21:22:44.431Z,62.33
2018-12-27T21:26:05.733Z,56.65
2018-12-27T21:33:45.628Z,56.88
2018-12-27T21:36:33.841Z,55.45
2018-12-27T21:43:19.365Z,72.82
2018-12-27T21:49:30.311Z,58.25
2018-12-27T21:52:02.931Z,69.07
2018-12-27T21:58:14.196Z,63.13
2018-12-27T22:00:54.975Z,60.12
2018-12-27T22:03:32.707Z,57.45
2018-12-27T22:05:59.210Z,63.38
2018-12-27T22:08:32.995Z,65.05
2018-12-27T22:11:03.400Z,67.47
2018-12-27T22:13:36.145Z,66.42
2018-12-27T22:16:18.508Z,60.80
2018-12-27T22:18:49.972Z,69.35
2018-12-27T22:21:59.938Z,61.80
2018-12-27T22:24:41.152Z,66.12
2018-12-27T22:27:20.889Z,56.73
2018-12-27T22:29:58.140Z,62.70
2018-12-27T22:40:01.079Z,67.62
2018-12-27T22:51:27.066Z,71.72
2018-12-27T22:54:18.657Z,62.50
2018-12-27T22:57:49.121Z,64.07
2018-12-27T23:00:49.556Z,75.10
2018-12-27T23:03:49.627Z,72.45
2018-12-27T23:06:28.035Z,71.42
2018-12-27T23:10:17.931Z,60.58
2018-12-27T23:13:27.262Z,61.13
2018-12-27T23:16:34.713Z,68.57
2018-12-27T23:19:19.422Z,67.53
2018-12-27T23:22:56.872Z,71.60
2018-12-27T23:25:41.558Z,75.45
2018-12-27T23:28:27.570Z,66.17
2018-12-27T23:31:36.352Z,71.40
2018-12-27T23:34:18.323Z,78.17
2018-12-27T23:37:02.035Z,77.25
2018-12-27T23:39:43.810Z,70.10
2018-12-27T23:42:23.741Z,69.35
2018-12-27T23:45:19.618Z,64.67
2018-12-27T23:47:57.793Z,74.05
2018-12-27T23:50:34.166Z,71.02
2018-12-27T23:53:15.930Z,61.85
2018-12-27T23:56:02.199Z,61.83
2018-12-27T23:58:59.796Z,52.65
